Racecast

Spencer Coburn

The Dalles (OR) · 12 · 4A-2 TRI-VALLEYOR D4A4A · Compare head to head

Athlete rating 97.4 2020 XC season
Best race 121.8 TF
Races 60
Seasons 6 2016 — 2021

RankedNation #96284·OR #1560·OR D4A #344·4A-2 TRI-VALLEY #21·Team #20 ?

Rating scale ?
Speed rating — all races

Cross Country

XC speed rating

2020 XC 94.5

The Dalles (OR) · Grade 12

Date Meet Event Result Place Rating Difficulty PR/SR Flags
2021-04-07 Sorosis Park 5000m 21:58.2 28th · 8th on team 99.7 +0.050 CSR RSR
2021-03-24 West Canyon Rim City Park 5000m +0.072 ★CR CSR
2021-03-17 Pendleton Country Club 5000m 21:42.7 15th · 8th on team 95.8 -0.005 ★CR SR CSR RSR
2021-03-10 Sorosis Park 5000m 23:20.8 20th · 7th on team 94.0 +0.050 SR CSR RSR
2021-03-03 Barnes Butte Trailhead 5000m 23:52.5 15th · 9th on team 88.6 +0.013 SR CSR RSR

2019 XC 111.2

The Dalles (OR) · Grade 11

Date Meet Event Result Place Rating Difficulty PR/SR Flags
2019-11-09 Lane Community College 5000m 17:54 73rd · 6th on team 116.2 +0.012 ★PR ★CR SR CSR RSR
2019-10-31 Sorosis Park 5000m 18:41.9 22nd · 7th on team 115.5 +0.050 ★CR CSR RSR
2019-10-17 Wildhorse Golf Course 5000m 18:07.9 35th · 5th on team 115.2 +0.005 PR ★CR SR CSR RSR
2019-10-11 Champoeg State Park 5000m 18:27.5 72nd · 6th on team 111.6 -0.006 PR ★CR SR CSR RSR
2019-09-28 Lake Sammamish State Park 5000m 18:35.7 57th · 1st on team 110.9 -0.000 ★CR SR CSR RSR
2019-09-21 Sorosis Park 5000m 20:43.8 55th · 7th on team 105.1 +0.050
2019-09-14 Oregon City High School 5000m 18:48 68th · 6th on team 110.0 -0.006 ★CR SR CSR RSR
2019-09-07 Tualatin HS 5000m 18:50.4 36th · 6th on team 108.8 +0.001 ★CR SR CSR RSR
2019-08-31 Sorosis Park 5000m 20:26.5 7th · 6th on team 107.2 +0.050 CR SR CSR RSR

2018 XC 103.5

The Dalles (OR) · Grade 10

Date Meet Event Result Place Rating Difficulty PR/SR Flags
2018-10-24 Barnes Butte Trailhead 5000m 19:28.8 19th · 8th on team 107.8 +0.013 ★CR CSR
2018-10-18 Wildhorse Golf Course 5000m 18:34.6 3rd · 3rd on team 112.0 +0.005 PR CR SR CSR RSR
2018-10-12 Champoeg State Park 5000m 19:06.7 30th · 5th on team 108.2 -0.006 CR SR CSR RSR
2018-10-04 Thompson Ranch 5000m 19:24.1 10th · 5th on team 107.2 +0.012 ★CR SR CSR RSR
2018-09-29 Portland Meadows Race Track 5000m 19:42.1 63rd · 3rd on team 106.6 +0.017 ★CR SR CSR RSR
2018-09-22 Sorosis Park 5000m 23:37.3 65th · 13th on team 91.7 +0.050
2018-09-15 Hayden Canyon Atrium 5000m 21:17.5 126th · 9th on team 100.8 +0.027 ★CR CSR
2018-09-12 Trout Lake School 5000m 21:39.3 42nd · 5th on team 97.8 +0.022 ★CR CSR
2018-09-08 Barnes Butte Trailhead 5000m 20:38 53rd · 14th on team 101.9 +0.013 CR SR CSR RSR
2018-09-01 Sorosis Park 5000m 21:46 18th · 12th on team 100.4 +0.050 CR SR CSR RSR

2017 XC 101.4

The Dalles (OR) · Grade 9

Date Meet Event Result Place Rating Difficulty PR/SR Flags
2017-10-26 Wildhorse Golf Course 5000m 19:05.8 19th · 9th on team 108.6 +0.005 PR CR SR CSR RSR
2017-10-19 Wildhorse Golf Course 5000m 19:54.3 28th · 12th on team 103.4 +0.005 PR CR SR CSR RSR
2017-10-11 Tualatin HS 5000m 20:10 33rd · 12th on team 101.9 +0.001 PR CR SR CSR RSR
2017-10-05 Thompson Ranch 5000m 22:04.5 13th · 11th on team 94.2 +0.012 CR CSR
2017-08-26 Sorosis Park 5000m 22:03 15th · 15th on team 99.1 +0.050 PR CR SR CSR RSR

2016 XC 109.6

The Dalles (OR) · Grade 8

Date Meet Event Result Place Rating Difficulty PR/SR Flags
2016-10-23 Western Oregon University 3000m 12:45.8 145th · 2nd on team 109.2 +0.001 ★CR CSR
2016-10-13 Wildhorse Golf Course 3000m 13:06.1 46th · 2nd on team 107.7 +0.014 ★CR CSR
2016-09-30 Riverfront Trail 3000m 15:34.3 36th · 17th on team 92.1 +0.023 ★CR CSR
2016-09-23 Sorosis Park 3000m 12:01.8 7th · 2nd on team 118.2 +0.029 ★PR ★CR R SR CSR RSR
2016-09-14 Hood River Valley HS 3000m 13:17.5 21st · 2nd on team 117.5 +0.114 ★CR R CSR RSR
2016-09-07 Wy'East MS 3000m 12:51 6th · 2nd on team 113.5 +0.035 PR ★CR R SR CSR RSR
2016-09-03 Sorosis Park 3000m 12:55 1st · 1st on team 109.0 +0.029 PR CR R SR CSR RSR

Track & Field

TF speed rating

2021 TF 102.0

The Dalles (OR) · Grade 12

Date Meet Event Result Place Rating Difficulty PR/SR Flags
2021-05-15 5A-4 IMC District Championships 400m 57.69 13th · 3rd on team -0.021 SR
2021-05-05 @The Dalles vs Crook County 400m 58.45 3rd · 3rd on team -0.021 SR
2021-05-05 @The Dalles vs Crook County 800m 2:37.06 7th · 5th on team 98.5 -0.021
2021-04-21 Redmond vs Hood River and The Dallas 400m 59.83 3rd · 2nd on team -0.004 SR
2021-04-21 Redmond vs Hood River and The Dallas 800m 2:29.11 11th · 5th on team 105.5 -0.004 SR RSR
2021-04-16 @The Dalles vs Horizon Christian (HR) 400m 1:00.37 2nd · 2nd on team -0.021 SR

2019 TF 115.9

The Dalles (OR) · Grade 10

Date Meet Event Result Place Rating Difficulty PR/SR Flags
2019-05-18 5A-4 IMC District Championships 800m 2:09.57 5th · 1st on team 121.8 -0.007 ★PR ★R SR RSR
2019-05-09 The Dalles, Redmond @ Ridgeview 800m 2:18.85 6th · 5th on team 113.8 +0.001
2019-05-09 The Dalles, Redmond @ Ridgeview 400m 57.03 3rd · 1st on team +0.001 ★PR SR
2019-05-03 Dean Nice Invite 800m 2:10.21 20th · 1st on team 116.5 -0.036 PR SR
2019-04-27 55th Centennial Invitational 800m 2:10.46 52nd · 2nd on team 117.0 -0.035 PR SR RSR
2019-04-19 Kiwanis Twilight Invitational 800m 2:12.21 15th · 3rd on team 116.2 -0.023
2019-04-13 The Willamette Falls Invitational 800m 2:11.25 32nd · 2nd on team 116.3 -0.036 PR SR RSR
2019-04-09 Horizon Christian@ The Dalles 400m 58.58 3rd · 3rd on team -0.021 PR SR
2019-04-09 Horizon Christian@ The Dalles 800m 2:20.48 2nd · 1st on team 110.1 -0.021
2019-04-06 Sandy Invitational 800m 2:14.03 10th · 2nd on team 115.1 -0.024 PR SR RSR

2018 TF 102.9

The Dalles (OR) · Grade 9

Date Meet Event Result Place Rating Difficulty PR/SR Flags
2018-04-25 Summit JV 800m 2:29.79 7th · 2nd on team 103.7 -0.011
2018-04-25 Summit JV 1500m 5:38.82 21st · 9th on team 96.0 -0.011
2018-04-03 The Dalles @ Hermiston 800m 2:26.93 2nd · 2nd on team 104.8 -0.023 PR SR RSR
2018-04-03 The Dalles @ Hermiston 1500m 5:04.99 5th · 5th on team 105.3 -0.023 ★PR SR RSR
2018-03-21 Sherwood Opener 1500m 5:07.02 14th · 7th on team 103.8 -0.027 PR SR RSR
2018-03-21 Sherwood Opener 800m 2:27.61 9th · 2nd on team 103.4 -0.027 PR SR

2017 TF 114.3

The Dalles (OR) · Grade 8

Date Meet Event Result Place Rating Difficulty PR/SR Flags
2017-05-02 Centennial Invitational 1500m 5:35.2 11th · 1st on team 113.0 -0.020
2017-04-12 Hermiston Invitational 1500m 5:25.31 6th · 2nd on team 115.6 -0.023 PR SR RSR